Time;durP1;ratioP1;P1;durP2;ratioP2;P2;SDS_P1;SDS_P2;PMS_P1;PMS_P2;Temp;Humidity;BMP_temperature;BMP_pressure;BME280_temperature;BME280_humidity;BME280_pressure;Samples;Min_cycle;Max_cycle;Signal;HPM_P1;HPM_P2
2023/09/04 00:01:45;;;;;;;;;;;22.70;55.20;;;;;;1550875;75;706;-53
2023/09/04 00:03:47;;;;;;;;;;;22.70;55.20;;;;;;1547731;75;726;-54
2023/09/04 00:05:49;;;;;;;;;;;22.70;55.20;;;;;;1552153;75;748;-51
2023/09/04 00:07:51;;;;;;;;;;;22.70;55.20;;;;;;1545727;75;782;-51
2023/09/04 00:09:53;;;;;;;;;;;22.70;55.20;;;;;;1543059;75;1945;-51
2023/09/04 00:11:55;;;;;;;;;;;22.70;55.20;;;;;;1541545;75;775;-52
2023/09/04 00:13:57;;;;;;;;;;;22.60;55.10;;;;;;1543383;75;1120;-50
2023/09/04 00:15:59;;;;;;;;;;;22.60;55.10;;;;;;1547135;75;795;-51
2023/09/04 00:18:00;;;;;;;;;;;22.70;55.10;;;;;;1552088;75;803;-52
2023/09/04 00:20:03;;;;;;;;;;;22.70;55.10;;;;;;1539514;75;1195;-50
2023/09/04 00:22:05;;;;;;;;;;;22.70;55.10;;;;;;1549647;76;699;-52
2023/09/04 00:24:07;;;;;;;;;;;22.60;54.90;;;;;;1549799;75;1465;-53
2023/09/04 00:26:09;;;;;;;;;;;22.70;55.00;;;;;;1535163;75;662;-52
2023/09/04 00:28:13;;;;;;;;;;;22.60;55.00;;;;;;1553648;75;808;-52
2023/09/04 00:30:14;;;;;;;;;;;22.60;54.90;;;;;;1546320;75;1938;-50
2023/09/04 00:32:16;;;;;;;;;;;22.60;54.90;;;;;;1542235;75;798;-49
2023/09/04 00:34:18;;;;;;;;;;;22.60;54.80;;;;;;1551125;75;715;-51
2023/09/04 00:36:20;;;;;;;;;;;22.60;54.80;;;;;;1534001;75;1081;-52
2023/09/04 00:38:22;;;;;;;;;;;22.60;54.70;;;;;;1540474;75;1535;-52
2023/09/04 00:40:24;;;;;;;;;;;22.60;54.80;;;;;;1540619;76;1170;-52
2023/09/04 00:42:27;;;;;;;;;;;22.60;54.70;;;;;;1532794;76;759;-52
2023/09/04 00:44:29;;;;;;;;;;;22.60;54.80;;;;;;1552489;75;713;-50
2023/09/04 00:46:31;;;;;;;;;;;22.60;54.80;;;;;;1542219;75;668;-50
2023/09/04 00:48:33;;;;;;;;;;;22.60;54.80;;;;;;1554154;75;755;-53
2023/09/04 00:50:36;;;;;;;;;;;22.60;54.70;;;;;;1538290;75;1944;-50
2023/09/04 00:52:38;;;;;;;;;;;22.60;54.70;;;;;;1557766;75;1537;-49
2023/09/04 00:54:40;;;;;;;;;;;22.60;54.70;;;;;;1547822;75;695;-52
2023/09/04 00:56:41;;;;;;;;;;;22.60;54.70;;;;;;1547872;75;818;-53
2023/09/04 00:58:43;;;;;;;;;;;22.60;54.70;;;;;;1544988;75;789;-53
2023/09/04 01:00:45;;;;;;;;;;;22.60;54.70;;;;;;1548602;75;1138;-49
2023/09/04 01:02:47;;;;;;;;;;;22.60;54.70;;;;;;1549224;75;669;-52
2023/09/04 01:04:49;;;;;;;;;;;22.60;54.70;;;;;;1544907;75;763;-51
2023/09/04 01:06:52;;;;;;;;;;;22.60;54.70;;;;;;1546873;75;1407;-50
2023/09/04 01:08:55;;;;;;;;;;;22.60;54.70;;;;;;1535200;75;795;-51
2023/09/04 01:10:59;;;;;;;;;;;22.60;54.70;;;;;;1541219;75;1928;-51
2023/09/04 01:13:17;;;;;;;;;;;22.60;54.70;;;;;;1537895;75;1789;-53
2023/09/04 01:15:19;;;;;;;;;;;22.50;54.70;;;;;;1518457;76;671;-52
2023/09/04 01:17:21;;;;;;;;;;;22.60;54.70;;;;;;1558297;75;763;-53
2023/09/04 01:19:23;;;;;;;;;;;22.60;54.70;;;;;;1521967;77;1125;-53
2023/09/04 01:21:25;;;;;;;;;;;22.60;54.60;;;;;;1522511;77;1517;-52
2023/09/04 01:23:27;;;;;;;;;;;22.60;54.70;;;;;;1543881;76;719;-53
2023/09/04 01:25:33;;;;;;;;;;;22.60;54.70;;;;;;1518677;77;710;-53
2023/09/04 01:27:39;;;;;;;;;;;22.50;54.70;;;;;;1529515;77;914;-53
2023/09/04 01:29:46;;;;;;;;;;;22.60;54.70;;;;;;1527863;76;1543;-49
2023/09/04 01:32:04;;;;;;;;;;;22.50;54.70;;;;;;1538337;76;1943;-53
2023/09/04 01:34:10;;;;;;;;;;;22.60;54.70;;;;;;1533666;76;717;-53
2023/09/04 01:36:12;;;;;;;;;;;22.50;54.70;;;;;;1525287;76;1283;-50
2023/09/04 01:38:14;;;;;;;;;;;22.50;54.70;;;;;;1549172;75;772;-50
2023/09/04 01:40:16;;;;;;;;;;;22.60;54.70;;;;;;1528016;77;1136;-52
2023/09/04 01:42:18;;;;;;;;;;;22.50;54.70;;;;;;1526866;77;699;-51
2023/09/04 01:44:20;;;;;;;;;;;22.60;54.60;;;;;;1556914;75;848;-51
2023/09/04 01:46:22;;;;;;;;;;;22.50;54.70;;;;;;1530471;76;707;-51
2023/09/04 01:48:24;;;;;;;;;;;22.50;54.70;;;;;;1550241;75;1254;-48
2023/09/04 01:50:26;;;;;;;;;;;22.60;54.60;;;;;;1547061;75;1943;-52
2023/09/04 01:52:27;;;;;;;;;;;22.50;54.70;;;;;;1555940;75;840;-47
2023/09/04 01:54:29;;;;;;;;;;;22.60;54.70;;;;;;1553861;75;694;-52
2023/09/04 01:56:32;;;;;;;;;;;22.50;54.70;;;;;;1546303;75;670;-52
2023/09/04 01:58:33;;;;;;;;;;;22.50;54.70;;;;;;1554143;75;674;-52
2023/09/04 02:00:35;;;;;;;;;;;22.60;54.70;;;;;;1559069;75;1145;-52
2023/09/04 02:02:37;;;;;;;;;;;22.60;54.70;;;;;;1548889;75;1467;-50
2023/09/04 02:04:39;;;;;;;;;;;22.60;54.70;;;;;;1552910;75;722;-50
2023/09/04 02:06:41;;;;;;;;;;;22.60;54.70;;;;;;1544515;75;913;-53
2023/09/04 02:08:45;;;;;;;;;;;22.50;54.70;;;;;;1546896;75;791;-53
2023/09/04 02:10:49;;;;;;;;;;;22.60;54.70;;;;;;1549509;75;1940;-53
2023/09/04 02:12:52;;;;;;;;;;;22.50;54.70;;;;;;1552349;75;715;-52
2023/09/04 02:14:53;;;;;;;;;;;22.50;54.60;;;;;;1558212;75;667;-50
2023/09/04 02:16:55;;;;;;;;;;;22.60;54.70;;;;;;1553816;75;1574;-47
2023/09/04 02:18:57;;;;;;;;;;;22.50;54.70;;;;;;1542773;75;688;-51
2023/09/04 02:21:00;;;;;;;;;;;22.60;54.60;;;;;;1550735;75;1123;-51
2023/09/04 02:23:02;;;;;;;;;;;22.50;54.60;;;;;;1545315;75;768;-53
2023/09/04 02:25:04;;;;;;;;;;;22.50;54.70;;;;;;1549489;75;752;-52
2023/09/04 02:27:06;;;;;;;;;;;22.50;54.60;;;;;;1549755;75;703;-52
2023/09/04 02:29:08;;;;;;;;;;;22.50;54.60;;;;;;1543118;75;695;-51
2023/09/04 02:31:11;;;;;;;;;;;22.50;54.60;;;;;;1545241;75;1950;-50
2023/09/04 02:33:13;;;;;;;;;;;22.50;54.50;;;;;;1541440;75;707;-51
2023/09/04 02:35:15;;;;;;;;;;;22.50;54.50;;;;;;1555042;75;745;-52
2023/09/04 02:37:16;;;;;;;;;;;22.60;54.50;;;;;;1543595;75;716;-52
2023/09/04 02:39:18;;;;;;;;;;;22.50;54.40;;;;;;1539210;75;808;-53
2023/09/04 02:41:20;;;;;;;;;;;22.50;54.40;;;;;;1548792;75;664;-52
2023/09/04 02:43:22;;;;;;;;;;;22.50;54.40;;;;;;1553976;75;764;-50
2023/09/04 02:45:24;;;;;;;;;;;22.50;54.40;;;;;;1552318;75;1528;-53
2023/09/04 02:47:26;;;;;;;;;;;22.50;54.30;;;;;;1544742;75;731;-53
2023/09/04 02:49:28;;;;;;;;;;;22.50;54.30;;;;;;1563506;75;1108;-52
2023/09/04 02:51:29;;;;;;;;;;;22.50;54.40;;;;;;1539703;75;1921;-53
2023/09/04 02:53:32;;;;;;;;;;;22.50;54.30;;;;;;1563026;75;782;-52
2023/09/04 02:55:34;;;;;;;;;;;22.50;54.20;;;;;;1549898;75;939;-54
2023/09/04 02:57:36;;;;;;;;;;;22.50;54.20;;;;;;1556390;75;713;-53
2023/09/04 02:59:38;;;;;;;;;;;22.50;54.20;;;;;;1557562;75;1519;-53
2023/09/04 03:01:40;;;;;;;;;;;22.50;54.20;;;;;;1563504;75;773;-49
2023/09/04 03:03:42;;;;;;;;;;;22.50;54.20;;;;;;1546472;75;719;-53
2023/09/04 03:05:44;;;;;;;;;;;22.50;54.20;;;;;;1547356;75;813;-51
2023/09/04 03:07:46;;;;;;;;;;;22.50;54.20;;;;;;1554934;75;729;-50
2023/09/04 03:09:48;;;;;;;;;;;22.50;54.20;;;;;;1548798;75;1066;-52
2023/09/04 03:11:49;;;;;;;;;;;22.50;54.10;;;;;;1550771;75;1942;-49
2023/09/04 03:13:51;;;;;;;;;;;22.50;54.00;;;;;;1546396;75;1676;-51
2023/09/04 03:15:53;;;;;;;;;;;22.50;54.00;;;;;;1548918;75;715;-53
2023/09/04 03:17:55;;;;;;;;;;;22.50;54.00;;;;;;1549408;75;719;-52
2023/09/04 03:19:57;;;;;;;;;;;22.50;53.90;;;;;;1558375;75;1114;-52
2023/09/04 03:21:59;;;;;;;;;;;22.50;53.90;;;;;;1551198;75;601;-49
2023/09/04 03:24:01;;;;;;;;;;;22.50;53.90;;;;;;1550920;75;794;-51
2023/09/04 03:26:03;;;;;;;;;;;22.50;53.90;;;;;;1544539;75;755;-51
2023/09/04 03:28:05;;;;;;;;;;;22.50;53.90;;;;;;1543897;75;1427;-50
2023/09/04 03:30:07;;;;;;;;;;;22.50;53.90;;;;;;1559849;75;1137;-53
2023/09/04 03:32:09;;;;;;;;;;;22.50;53.80;;;;;;1552300;75;1920;-51
2023/09/04 03:34:11;;;;;;;;;;;22.40;53.60;;;;;;1555726;75;741;-49
2023/09/04 03:36:13;;;;;;;;;;;22.50;53.80;;;;;;1545248;75;699;-54
2023/09/04 03:38:16;;;;;;;;;;;22.40;53.60;;;;;;1547367;75;841;-47
2023/09/04 03:40:24;;;;;;;;;;;22.50;53.90;;;;;;1552841;75;1116;-51
2023/09/04 03:42:26;;;;;;;;;;;22.50;53.90;;;;;;1553297;75;1405;-51
2023/09/04 03:44:28;;;;;;;;;;;22.50;54.00;;;;;;1540303;75;740;-54
2023/09/04 03:46:30;;;;;;;;;;;22.40;53.90;;;;;;1551880;75;726;-52
2023/09/04 03:48:32;;;;;;;;;;;22.40;54.00;;;;;;1562361;75;697;-52
2023/09/04 03:50:35;;;;;;;;;;;22.40;54.00;;;;;;1548845;75;1219;-53
2023/09/04 03:52:38;;;;;;;;;;;22.40;54.10;;;;;;1552140;75;1905;-50
2023/09/04 03:54:40;;;;;;;;;;;22.40;54.10;;;;;;1565834;75;797;-51
2023/09/04 03:56:41;;;;;;;;;;;22.40;54.10;;;;;;1546504;75;1521;-51
2023/09/04 03:58:43;;;;;;;;;;;22.40;54.10;;;;;;1550123;75;802;-49
2023/09/04 04:00:45;;;;;;;;;;;22.40;54.10;;;;;;1548475;75;1119;-53
2023/09/04 04:02:47;;;;;;;;;;;22.40;54.20;;;;;;1521235;77;1135;-52
2023/09/04 04:04:52;;;;;;;;;;;22.40;54.20;;;;;;1547858;75;655;-53
2023/09/04 04:06:55;;;;;;;;;;;22.50;54.30;;;;;;1546356;75;678;-50
2023/09/04 04:08:57;;;;;;;;;;;22.40;54.20;;;;;;1546028;75;1517;-48
2023/09/04 04:10:59;;;;;;;;;;;22.40;54.20;;;;;;1544717;75;1975;-52
2023/09/04 04:13:01;;;;;;;;;;;22.40;54.20;;;;;;1548089;75;736;-52
2023/09/04 04:15:05;;;;;;;;;;;22.40;54.20;;;;;;1552364;75;735;-52
2023/09/04 04:17:08;;;;;;;;;;;22.40;54.20;;;;;;1551922;75;707;-50
2023/09/04 04:19:10;;;;;;;;;;;22.40;54.20;;;;;;1548512;75;773;-54
2023/09/04 04:21:12;;;;;;;;;;;22.40;54.20;;;;;;1553055;75;1138;-54
2023/09/04 04:23:14;;;;;;;;;;;22.40;54.20;;;;;;1558262;75;1538;-52
2023/09/04 04:25:16;;;;;;;;;;;22.40;54.20;;;;;;1548183;75;738;-54
2023/09/04 04:27:18;;;;;;;;;;;22.40;54.20;;;;;;1551183;75;691;-52
2023/09/04 04:29:19;;;;;;;;;;;22.30;54.20;;;;;;1542679;75;1104;-51
2023/09/04 04:31:22;;;;;;;;;;;22.40;54.40;;;;;;1552829;75;1942;-56
2023/09/04 04:33:24;;;;;;;;;;;22.40;54.30;;;;;;1544816;75;696;-51
2023/09/04 04:35:26;;;;;;;;;;;22.40;54.20;;;;;;1549158;75;719;-51
2023/09/04 04:37:28;;;;;;;;;;;22.30;54.10;;;;;;1549889;75;1423;-52
2023/09/04 04:39:30;;;;;;;;;;;22.40;54.00;;;;;;1540228;75;1125;-52
2023/09/04 04:41:32;;;;;;;;;;;22.30;54.00;;;;;;1547061;75;770;-55
2023/09/04 04:43:34;;;;;;;;;;;22.30;54.10;;;;;;1546449;75;760;-55
2023/09/04 04:45:36;;;;;;;;;;;22.40;54.10;;;;;;1544652;75;755;-52
2023/09/04 04:47:37;;;;;;;;;;;22.40;54.10;;;;;;1543797;75;751;-54
2023/09/04 04:49:39;;;;;;;;;;;22.40;54.10;;;;;;1557964;75;1136;-52
2023/09/04 04:51:41;;;;;;;;;;;22.30;53.90;;;;;;1542092;75;1939;-52
2023/09/04 04:53:43;;;;;;;;;;;22.40;54.00;;;;;;1554032;75;725;-52
2023/09/04 04:55:45;;;;;;;;;;;22.40;53.90;;;;;;1545276;75;683;-54
2023/09/04 04:57:47;;;;;;;;;;;22.30;53.90;;;;;;1555090;75;661;-55
2023/09/04 04:59:49;;;;;;;;;;;22.30;54.00;;;;;;1550503;75;1168;-54
2023/09/04 05:01:51;;;;;;;;;;;22.30;54.10;;;;;;1545498;75;717;-54
2023/09/04 05:03:52;;;;;;;;;;;22.40;53.90;;;;;;1546214;75;741;-54
2023/09/04 05:05:54;;;;;;;;;;;22.40;53.80;;;;;;1544569;75;1456;-54
2023/09/04 05:07:56;;;;;;;;;;;22.40;54.00;;;;;;1550906;75;732;-54
2023/09/04 05:09:58;;;;;;;;;;;22.40;53.90;;;;;;1553128;75;1140;-54
2023/09/04 05:12:00;;;;;;;;;;;22.40;53.90;;;;;;1550641;75;1930;-53
2023/09/04 05:14:02;;;;;;;;;;;22.40;53.80;;;;;;1555794;75;721;-53
2023/09/04 05:16:05;;;;;;;;;;;22.40;53.80;;;;;;1549767;75;728;-54
2023/09/04 05:18:06;;;;;;;;;;;22.40;53.90;;;;;;1548090;75;706;-54
2023/09/04 05:20:09;;;;;;;;;;;22.40;53.90;;;;;;1547216;75;1581;-53
2023/09/04 05:22:11;;;;;;;;;;;22.40;53.80;;;;;;1551607;75;720;-54
2023/09/04 05:24:13;;;;;;;;;;;22.40;53.90;;;;;;1556006;75;729;-53
2023/09/04 05:26:15;;;;;;;;;;;22.40;53.90;;;;;;1559529;75;774;-53
2023/09/04 05:28:17;;;;;;;;;;;22.40;53.80;;;;;;1557185;75;577;-54
2023/09/04 05:30:19;;;;;;;;;;;22.50;53.90;;;;;;1547385;75;1141;-53
2023/09/04 05:32:21;;;;;;;;;;;22.40;53.80;;;;;;1547376;75;1936;-55
2023/09/04 05:34:23;;;;;;;;;;;22.50;53.80;;;;;;1551073;75;1450;-53
2023/09/04 05:36:25;;;;;;;;;;;22.50;53.80;;;;;;1546546;75;726;-53
2023/09/04 05:38:27;;;;;;;;;;;22.50;53.90;;;;;;1536532;75;777;-53
2023/09/04 05:40:29;;;;;;;;;;;22.50;53.90;;;;;;1547676;75;1158;-54
2023/09/04 05:42:31;;;;;;;;;;;22.50;53.80;;;;;;1560927;75;738;-53
2023/09/04 05:44:33;;;;;;;;;;;22.50;53.90;;;;;;1555072;75;728;-53
2023/09/04 05:46:35;;;;;;;;;;;22.50;53.90;;;;;;1543897;75;802;-54
2023/09/04 05:48:37;;;;;;;;;;;22.50;53.90;;;;;;1557171;75;1471;-54
2023/09/04 05:50:39;;;;;;;;;;;22.50;53.90;;;;;;1536306;75;1119;-53
2023/09/04 05:52:40;;;;;;;;;;;22.50;53.90;;;;;;1546782;75;1932;-53
2023/09/04 05:54:42;;;;;;;;;;;22.50;53.90;;;;;;1548662;75;711;-54
2023/09/04 05:56:44;;;;;;;;;;;22.50;53.80;;;;;;1548838;75;653;-55
2023/09/04 05:58:49;;;;;;;;;;;22.60;53.70;;;;;;1551440;75;732;-54
2023/09/04 06:00:51;;;;;;;;;;;22.60;53.60;;;;;;1544576;75;1170;-53
2023/09/04 06:02:54;;;;;;;;;;;22.60;53.60;;;;;;1558005;75;1430;-53
2023/09/04 06:04:56;;;;;;;;;;;22.60;53.70;;;;;;1528761;77;729;-54
2023/09/04 06:06:58;;;;;;;;;;;22.60;53.80;;;;;;1526054;76;733;-53
2023/09/04 06:09:00;;;;;;;;;;;22.60;53.70;;;;;;1525767;76;606;-53
2023/09/04 06:11:02;;;;;;;;;;;22.60;53.80;;;;;;1557581;75;1122;-54
2023/09/04 06:13:04;;;;;;;;;;;22.60;53.90;;;;;;1538583;76;1915;-52
2023/09/04 06:15:07;;;;;;;;;;;22.50;53.90;;;;;;1522475;77;728;-54
2023/09/04 06:17:09;;;;;;;;;;;22.50;53.90;;;;;;1569044;75;1335;-52
2023/09/04 06:19:10;;;;;;;;;;;22.40;54.10;;;;;;1576471;75;938;-54
2023/09/04 06:21:12;;;;;;;;;;;22.50;54.60;;;;;;1563784;75;1093;-54
2023/09/04 06:23:14;;;;;;;;;;;22.40;55.00;;;;;;1562645;75;651;-55
2023/09/04 06:25:17;;;;;;;;;;;22.40;55.00;;;;;;1568301;75;666;-53
2023/09/04 06:27:19;;;;;;;;;;;22.50;55.30;;;;;;1564778;75;759;-53
2023/09/04 06:29:21;;;;;;;;;;;22.40;55.40;;;;;;1561246;75;1084;-53
2023/09/04 06:31:23;;;;;;;;;;;22.50;55.50;;;;;;1576652;75;1432;-53
2023/09/04 06:33:33;;;;;;;;;;;22.50;55.50;;;;;;1525561;76;1979;-54
2023/09/04 06:35:28;;;;;;;;;;;22.50;55.50;;;;;;1548883;75;1515;-53
2023/09/04 06:37:30;;;;;;;;;;;22.50;55.40;;;;;;1542857;75;727;-55
2023/09/04 06:39:32;;;;;;;;;;;22.50;55.40;;;;;;1540971;75;1127;-53
2023/09/04 06:41:34;;;;;;;;;;;22.50;55.40;;;;;;1544871;75;725;-54
2023/09/04 06:43:36;;;;;;;;;;;22.60;55.30;;;;;;1546400;75;678;-54
2023/09/04 06:45:38;;;;;;;;;;;22.70;55.20;;;;;;1540603;75;746;-55
2023/09/04 06:47:41;;;;;;;;;;;23.00;54.50;;;;;;1543636;75;665;-54
2023/09/04 06:49:42;;;;;;;;;;;23.80;53.20;;;;;;1544115;75;1131;-53
2023/09/04 06:51:44;;;;;;;;;;;24.20;51.80;;;;;;1542862;75;812;-53
2023/09/04 06:53:46;;;;;;;;;;;24.50;51.00;;;;;;1540441;75;1900;-54
2023/09/04 06:55:48;;;;;;;;;;;25.60;48.40;;;;;;1543114;76;723;-53
2023/09/04 06:57:50;;;;;;;;;;;28.10;43.40;;;;;;1552085;75;744;-53
2023/09/04 06:59:55;;;;;;;;;;;30.50;38.50;;;;;;1543831;75;1165;-54
2023/09/04 07:01:56;;;;;;;;;;;32.00;35.20;;;;;;1541817;75;721;-54
2023/09/04 07:03:58;;;;;;;;;;;33.10;32.80;;;;;;1543315;76;739;-54
2023/09/04 07:06:00;;;;;;;;;;;33.70;30.70;;;;;;1543158;75;731;-54
2023/09/04 07:08:04;;;;;;;;;;;33.70;29.90;;;;;;1547125;75;747;-54
2023/09/04 07:10:06;;;;;;;;;;;32.10;32.10;;;;;;1540167;75;1147;-53
2023/09/04 07:12:11;;;;;;;;;;;29.80;35.30;;;;;;1565683;75;1926;-53
2023/09/04 07:14:12;;;;;;;;;;;28.00;38.90;;;;;;1543754;75;1621;-54
2023/09/04 07:16:14;;;;;;;;;;;26.90;41.00;;;;;;1550706;75;733;-55
2023/09/04 07:18:15;;;;;;;;;;;26.10;43.40;;;;;;1541012;76;753;-53
2023/09/04 07:20:18;;;;;;;;;;;25.60;44.70;;;;;;1552503;75;1447;-53
2023/09/04 07:22:19;;;;;;;;;;;25.20;46.20;;;;;;1548953;75;673;-53
2023/09/04 07:24:21;;;;;;;;;;;24.90;47.40;;;;;;1546678;76;789;-55
2023/09/04 07:26:23;;;;;;;;;;;24.60;48.20;;;;;;1546833;75;665;-54
2023/09/04 07:28:25;;;;;;;;;;;24.40;49.00;;;;;;1544106;75;770;-54
2023/09/04 07:30:27;;;;;;;;;;;24.30;49.80;;;;;;1540189;75;1112;-53
2023/09/04 07:32:29;;;;;;;;;;;24.10;50.20;;;;;;1554277;75;1918;-53
2023/09/04 07:34:31;;;;;;;;;;;24.00;50.60;;;;;;1545426;75;723;-54
2023/09/04 07:36:33;;;;;;;;;;;24.00;51.10;;;;;;1542290;75;716;-56
2023/09/04 07:38:35;;;;;;;;;;;23.90;51.50;;;;;;1547377;75;768;-55
2023/09/04 07:40:37;;;;;;;;;;;23.80;51.70;;;;;;1541627;76;1298;-56
2023/09/04 07:42:41;;;;;;;;;;;23.70;52.10;;;;;;1544329;75;711;-56
2023/09/04 07:44:42;;;;;;;;;;;23.70;52.30;;;;;;1546405;75;1636;-55
2023/09/04 07:46:44;;;;;;;;;;;23.60;52.50;;;;;;1550412;76;786;-54
2023/09/04 07:48:46;;;;;;;;;;;23.60;52.80;;;;;;1553657;75;997;-55
2023/09/04 07:50:48;;;;;;;;;;;23.60;52.90;;;;;;1548017;75;1143;-55
2023/09/04 07:52:50;;;;;;;;;;;23.60;53.10;;;;;;1544150;76;1918;-55
2023/09/04 07:54:52;;;;;;;;;;;23.50;53.30;;;;;;1544709;75;718;-54
2023/09/04 07:56:54;;;;;;;;;;;23.50;53.40;;;;;;1540021;76;724;-55
2023/09/04 07:58:56;;;;;;;;;;;23.50;53.80;;;;;;1546319;75;689;-54
2023/09/04 08:00:58;;;;;;;;;;;23.50;53.70;;;;;;1545653;75;1559;-55
2023/09/04 08:03:00;;;;;;;;;;;23.50;53.90;;;;;;1539167;75;655;-55
2023/09/04 08:05:02;;;;;;;;;;;23.50;54.00;;;;;;1549195;75;774;-56
2023/09/04 08:07:05;;;;;;;;;;;23.50;53.80;;;;;;1544000;75;666;-55
2023/09/04 08:09:06;;;;;;;;;;;23.50;54.20;;;;;;1547322;76;712;-54
2023/09/04 08:11:08;;;;;;;;;;;23.50;54.10;;;;;;1550129;75;1106;-54
2023/09/04 08:13:11;;;;;;;;;;;23.50;54.20;;;;;;1547104;75;1933;-53
2023/09/04 08:15:13;;;;;;;;;;;23.50;54.20;;;;;;1543689;75;771;-54
2023/09/04 08:17:15;;;;;;;;;;;23.50;54.10;;;;;;1543645;75;725;-53
2023/09/04 08:19:17;;;;;;;;;;;23.50;54.10;;;;;;1544001;76;730;-55
2023/09/04 08:21:19;;;;;;;;;;;23.50;54.00;;;;;;1547103;76;1099;-54
2023/09/04 08:23:21;;;;;;;;;;;23.50;54.20;;;;;;1546092;76;747;-54
2023/09/04 08:25:22;;;;;;;;;;;23.50;54.20;;;;;;1552322;75;727;-53
2023/09/04 08:27:24;;;;;;;;;;;23.50;54.20;;;;;;1537522;76;698;-55
2023/09/04 08:29:26;;;;;;;;;;;23.60;54.40;;;;;;1536330;76;1130;-55
2023/09/04 08:31:28;;;;;;;;;;;23.50;54.40;;;;;;1546932;76;669;-55
2023/09/04 08:33:30;;;;;;;;;;;23.50;54.40;;;;;;1549133;75;1938;-54
2023/09/04 08:35:32;;;;;;;;;;;23.50;54.40;;;;;;1544222;75;654;-54
2023/09/04 08:37:34;;;;;;;;;;;23.50;54.30;;;;;;1554976;75;1486;-54
2023/09/04 08:39:36;;;;;;;;;;;23.60;54.40;;;;;;1540821;75;1146;-54
2023/09/04 08:41:37;;;;;;;;;;;23.50;54.30;;;;;;1555567;75;822;-54
2023/09/04 08:43:39;;;;;;;;;;;23.50;54.20;;;;;;1536176;75;735;-53
2023/09/04 08:45:41;;;;;;;;;;;23.60;54.10;;;;;;1542147;75;717;-54
2023/09/04 08:47:43;;;;;;;;;;;23.60;54.30;;;;;;1548093;75;778;-53
2023/09/04 08:49:45;;;;;;;;;;;23.50;54.20;;;;;;1545858;75;1128;-55
2023/09/04 08:51:47;;;;;;;;;;;23.50;54.40;;;;;;1536395;75;684;-54
2023/09/04 08:53:50;;;;;;;;;;;23.50;54.30;;;;;;1544088;75;1921;-53
2023/09/04 08:55:52;;;;;;;;;;;23.60;54.40;;;;;;1552527;76;749;-53
2023/09/04 08:57:54;;;;;;;;;;;23.50;54.20;;;;;;1545267;75;678;-53
2023/09/04 08:59:56;;;;;;;;;;;23.60;54.30;;;;;;1533253;77;1183;-53
2023/09/04 09:02:00;;;;;;;;;;;23.50;54.20;;;;;;1527733;76;704;-53
2023/09/04 09:04:02;;;;;;;;;;;23.50;54.10;;;;;;1528761;77;1598;-55
2023/09/04 09:06:04;;;;;;;;;;;23.60;54.10;;;;;;1553573;76;704;-53
2023/09/04 09:08:07;;;;;;;;;;;23.50;54.10;;;;;;1541786;76;744;-53
2023/09/04 09:10:09;;;;;;;;;;;23.50;54.10;;;;;;1530004;76;1080;-55
2023/09/04 09:12:11;;;;;;;;;;;23.60;54.10;;;;;;1533872;76;747;-53
2023/09/04 09:14:13;;;;;;;;;;;23.60;54.00;;;;;;1549747;75;1971;-55
2023/09/04 09:16:19;;;;;;;;;;;23.50;54.00;;;;;;1544778;75;655;-54
2023/09/04 09:18:37;;;;;;;;;;;23.60;53.90;;;;;;1542184;75;784;-55
2023/09/04 09:20:42;;;;;;;;;;;23.50;54.00;;;;;;1535166;76;1161;-53
2023/09/04 09:22:45;;;;;;;;;;;23.60;53.90;;;;;;1542533;76;1615;-54
2023/09/04 09:24:56;;;;;;;;;;;23.50;53.90;;;;;;1533754;75;1081;-53
2023/09/04 09:26:58;;;;;;;;;;;23.50;53.90;;;;;;1540925;75;686;-53
2023/09/04 09:29:02;;;;;;;;;;;23.50;54.00;;;;;;1543805;75;735;-53
2023/09/04 09:31:04;;;;;;;;;;;23.50;54.00;;;;;;1544240;75;1127;-53
2023/09/04 09:33:16;;;;;;;;;;;23.50;54.00;;;;;;1544812;75;1929;-54
2023/09/04 09:35:14;;;;;;;;;;;23.50;53.90;;;;;;1542923;76;1353;-54
2023/09/04 09:37:16;;;;;;;;;;;23.50;53.80;;;;;;1540755;76;1052;-53
2023/09/04 09:39:18;;;;;;;;;;;23.50;53.90;;;;;;1540273;76;810;-53
2023/09/04 09:41:20;;;;;;;;;;;23.50;53.80;;;;;;1530565;76;1168;-53
2023/09/04 09:43:22;;;;;;;;;;;23.50;53.70;;;;;;1536449;76;751;-53
2023/09/04 09:45:24;;;;;;;;;;;23.50;53.80;;;;;;1563414;75;724;-55
2023/09/04 09:47:26;;;;;;;;;;;23.50;53.60;;;;;;1527277;76;708;-54
2023/09/04 09:49:28;;;;;;;;;;;23.50;53.60;;;;;;1539491;75;1122;-53
2023/09/04 09:51:31;;;;;;;;;;;23.50;53.60;;;;;;1552856;75;687;-54
2023/09/04 09:53:49;;;;;;;;;;;23.50;53.40;;;;;;1527894;76;1942;-55
2023/09/04 09:55:51;;;;;;;;;;;23.50;53.50;;;;;;1528438;77;717;-53
2023/09/04 09:57:54;;;;;;;;;;;23.50;53.50;;;;;;1558788;75;727;-53
2023/09/04 09:59:56;;;;;;;;;;;23.50;53.20;;;;;;1556638;75;1165;-54
2023/09/04 10:01:58;;;;;;;;;;;23.50;53.40;;;;;;1544824;76;721;-53
2023/09/04 10:04:00;;;;;;;;;;;23.50;53.40;;;;;;1521949;77;674;-53
2023/09/04 10:06:04;;;;;;;;;;;23.50;53.40;;;;;;1524672;77;740;-53
2023/09/04 10:08:06;;;;;;;;;;;23.50;53.40;;;;;;1547081;76;694;-53
2023/09/04 10:10:08;;;;;;;;;;;23.40;52.90;;;;;;1524977;76;1161;-55
2023/09/04 10:12:28;;;;;;;;;;;23.50;53.20;;;;;;1525663;77;735;-53
2023/09/04 10:14:32;;;;;;;;;;;23.50;53.30;;;;;;1556419;75;1923;-54
2023/09/04 10:16:35;;;;;;;;;;;23.50;53.40;;;;;;1546712;75;776;-53
2023/09/04 10:18:37;;;;;;;;;;;23.50;53.40;;;;;;1552812;75;669;-53
2023/09/04 10:20:40;;;;;;;;;;;23.50;53.50;;;;;;1560808;75;1145;-53
2023/09/04 10:22:45;;;;;;;;;;;23.50;53.40;;;;;;1551915;75;748;-53
2023/09/04 10:24:48;;;;;;;;;;;23.50;53.40;;;;;;1549244;75;1780;-53
2023/09/04 10:27:08;;;;;;;;;;;23.40;53.40;;;;;;1549485;75;787;-55
2023/09/04 10:29:11;;;;;;;;;;;23.40;53.40;;;;;;1542916;75;1698;-53
2023/09/04 10:31:13;;;;;;;;;;;23.40;53.50;;;;;;1548000;75;1112;-53
2023/09/04 10:33:15;;;;;;;;;;;23.40;53.50;;;;;;1544532;75;1925;-54
2023/09/04 10:35:16;;;;;;;;;;;23.40;53.50;;;;;;1554305;75;671;-53
2023/09/04 10:37:18;;;;;;;;;;;23.40;53.40;;;;;;1557653;75;726;-54
2023/09/04 10:39:20;;;;;;;;;;;23.50;53.60;;;;;;1548279;75;704;-53
2023/09/04 10:41:22;;;;;;;;;;;23.40;53.50;;;;;;1557098;75;754;-53
2023/09/04 10:43:43;;;;;;;;;;;23.40;53.50;;;;;;1562523;75;719;-54
2023/09/04 10:46:05;;;;;;;;;;;23.40;53.50;;;;;;1549534;75;679;-56
2023/09/04 10:48:07;;;;;;;;;;;23.30;53.50;;;;;;1549044;75;1358;-55
2023/09/04 10:50:11;;;;;;;;;;;23.40;53.40;;;;;;1546608;75;1178;-54
2023/09/04 10:52:13;;;;;;;;;;;23.40;53.50;;;;;;1538671;75;1139;-54
2023/09/04 10:54:16;;;;;;;;;;;23.40;53.40;;;;;;1551272;75;1944;-53
2023/09/04 10:56:18;;;;;;;;;;;23.40;53.40;;;;;;1548136;75;783;-55
2023/09/04 10:58:20;;;;;;;;;;;23.40;53.40;;;;;;1550080;76;743;-54
2023/09/04 11:00:27;;;;;;;;;;;23.40;53.40;;;;;;1543170;75;1175;-54
2023/09/04 11:02:33;;;;;;;;;;;23.30;53.60;;;;;;1550775;75;1485;-53
2023/09/04 11:04:36;;;;;;;;;;;23.40;53.30;;;;;;1541723;75;746;-53
2023/09/04 11:06:39;;;;;;;;;;;23.30;53.60;;;;;;1551666;75;709;-55
2023/09/04 11:08:43;;;;;;;;;;;23.30;53.60;;;;;;1539322;75;742;-55
2023/09/04 11:10:45;;;;;;;;;;;23.40;53.50;;;;;;1540017;76;1576;-55
2023/09/04 11:12:47;;;;;;;;;;;23.30;53.50;;;;;;1547410;75;713;-54
2023/09/04 11:14:49;;;;;;;;;;;23.40;53.30;;;;;;1539614;75;1932;-54
2023/09/04 11:16:51;;;;;;;;;;;23.30;53.50;;;;;;1507955;76;1234;-55
2023/09/04 11:19:03;;;;;;;;;;;23.40;53.30;;;;;;1532363;77;698;-55
2023/09/04 11:21:05;;;;;;;;;;;23.30;53.30;;;;;;1526396;75;1125;-54
2023/09/04 11:23:06;;;;;;;;;;;23.40;53.20;;;;;;1535427;75;653;-53
2023/09/04 11:25:08;;;;;;;;;;;23.40;53.00;;;;;;1525255;75;1440;-54
2023/09/04 11:27:10;;;;;;;;;;;23.40;53.10;;;;;;1540407;76;734;-54
2023/09/04 11:29:12;;;;;;;;;;;23.30;53.00;;;;;;1527825;75;707;-55
2023/09/04 11:31:14;;;;;;;;;;;23.30;52.90;;;;;;1540121;75;1114;-54
2023/09/04 11:33:16;;;;;;;;;;;23.30;52.80;;;;;;1532533;75;785;-54
2023/09/04 11:35:18;;;;;;;;;;;23.40;52.80;;;;;;1535600;77;1940;-53
2023/09/04 11:37:19;;;;;;;;;;;23.30;52.70;;;;;;1538050;75;692;-54
2023/09/04 11:39:21;;;;;;;;;;;23.30;52.60;;;;;;1539548;75;1145;-54
2023/09/04 11:41:23;;;;;;;;;;;23.30;52.40;;;;;;1547025;75;717;-53
2023/09/04 11:43:26;;;;;;;;;;;23.40;52.50;;;;;;1539511;75;789;-53
2023/09/04 11:45:28;;;;;;;;;;;23.30;52.40;;;;;;1525812;77;991;-54
2023/09/04 11:47:30;;;;;;;;;;;23.30;52.30;;;;;;1537654;75;706;-53
2023/09/04 11:49:32;;;;;;;;;;;23.30;52.30;;;;;;1533988;75;1158;-53
2023/09/04 11:51:34;;;;;;;;;;;23.40;52.20;;;;;;1538076;75;701;-54
2023/09/04 11:53:36;;;;;;;;;;;23.30;52.10;;;;;;1534121;76;657;-54
2023/09/04 11:55:37;;;;;;;;;;;23.30;52.10;;;;;;1539704;75;1945;-54
2023/09/04 11:57:39;;;;;;;;;;;23.30;52.10;;;;;;1541242;76;727;-53
2023/09/04 11:59:42;;;;;;;;;;;23.40;52.10;;;;;;1540793;75;1205;-53
2023/09/04 12:01:45;;;;;;;;;;;23.30;52.10;;;;;;1536914;75;788;-54
2023/09/04 12:03:47;;;;;;;;;;;23.40;52.00;;;;;;1531027;75;588;-53
2023/09/04 12:05:51;;;;;;;;;;;23.40;52.10;;;;;;1531161;77;686;-53
2023/09/04 12:07:53;;;;;;;;;;;23.30;52.10;;;;;;1537785;75;694;-54
2023/09/04 12:09:55;;;;;;;;;;;23.30;52.00;;;;;;1543859;75;1190;-55
2023/09/04 12:11:57;;;;;;;;;;;23.30;52.00;;;;;;1541419;76;713;-54